Time;durP1;ratioP1;P1;durP2;ratioP2;P2;SDS_P1;SDS_P2;PMS_P1;PMS_P2;Temp;Humidity;BMP_temperature;BMP_pressure;BME280_temperature;BME280_humidity;BME280_pressure;Samples;Min_cycle;Max_cycle;Signal;HPM_P1;HPM_P2
2022/12/01 00:02:01;;;;;;;42.60;25.77;;;;;;;4.89;100.00;102519.59;5106503;28;20034;-69
2022/12/01 00:04:26;;;;;;;39.78;25.58;;;;;;;4.88;100.00;102515.19;5103763;28;20036;-69
2022/12/01 00:06:52;;;;;;;40.58;25.08;;;;;;;4.85;100.00;102517.63;5104082;28;20103;-69
2022/12/01 00:12:01;;;;;;;40.10;25.48;;;;;;;4.91;100.00;102510.91;5106583;28;20116;-69
2022/12/01 00:14:26;;;;;;;41.53;26.00;;;;;;;4.85;100.00;102512.41;5103673;28;20028;-69
2022/12/01 00:16:52;;;;;;;42.22;25.67;;;;;;;4.84;100.00;102513.19;5105079;28;20039;-69
2022/12/01 00:19:17;;;;;;;42.05;25.80;;;;;;;4.84;100.00;102509.69;5104873;28;20027;-69
2022/12/01 00:21:42;;;;;;;40.08;25.02;;;;;;;4.83;100.00;102508.78;5103261;28;20059;-70
2022/12/01 00:24:09;;;;;;;41.20;25.52;;;;;;;4.81;100.00;102504.28;5106528;28;20038;-69
2022/12/01 00:26:36;;;;;;;42.25;26.52;;;;;;;4.78;100.00;102510.25;5102688;28;20028;-69
2022/12/01 00:29:01;;;;;;;40.65;25.85;;;;;;;4.83;100.00;102503.53;5105860;28;20035;-68
2022/12/01 00:31:26;;;;;;;41.50;25.98;;;;;;;4.85;100.00;102507.16;5102317;28;20032;-68
2022/12/01 00:33:52;;;;;;;41.15;25.77;;;;;;;4.84;100.00;102504.44;5103303;28;20050;-68
2022/12/01 00:36:17;;;;;;;42.72;26.40;;;;;;;4.81;100.00;102510.41;5104714;28;20449;-68
2022/12/01 00:38:43;;;;;;;42.28;25.73;;;;;;;4.81;100.00;102506.91;5103339;28;20089;-68
2022/12/01 00:41:08;;;;;;;42.08;26.05;;;;;;;4.81;100.00;102507.78;5105948;28;20107;-68
2022/12/01 00:43:34;;;;;;;43.38;26.98;;;;;;;4.83;100.00;102502.63;5102494;28;20025;-67
2022/12/01 00:45:59;;;;;;;43.88;27.20;;;;;;;4.84;100.00;102510.59;5104208;28;20042;-68
2022/12/01 00:48:25;;;;;;;43.72;26.02;;;;;;;4.84;100.00;102505.34;5103172;28;20015;-68
2022/12/01 00:50:51;;;;;;;44.20;27.08;;;;;;;4.83;100.00;102511.38;5104138;28;20461;-68
2022/12/01 00:53:16;;;;;;;46.13;27.48;;;;;;;4.86;100.00;102505.41;5103046;28;20513;-68
2022/12/01 00:55:42;;;;;;;47.63;27.75;;;;;;;4.84;100.00;102507.97;5102511;28;20068;-68
2022/12/01 00:58:07;;;;;;;49.63;28.02;;;;;;;4.81;100.00;102502.56;5104823;28;20028;-68
2022/12/01 01:00:33;;;;;;;49.10;29.00;;;;;;;4.79;100.00;102508.53;5097941;28;20110;-68
2022/12/01 01:02:58;;;;;;;50.28;29.60;;;;;;;4.76;100.00;102511.91;5104938;28;20427;-68
2022/12/01 01:05:24;;;;;;;47.30;27.95;;;;;;;4.78;100.00;102507.63;5103424;28;20505;-74
2022/12/01 01:07:49;;;;;;;49.63;29.38;;;;;;;4.75;100.00;102510.09;5103407;28;20387;-74
2022/12/01 01:10:14;;;;;;;50.15;28.98;;;;;;;4.76;100.00;102516.22;5104553;28;20375;-73
2022/12/01 01:12:40;;;;;;;50.22;29.08;;;;;;;4.77;100.00;102515.41;5102094;28;20059;-73
2022/12/01 01:15:06;;;;;;;49.00;28.67;;;;;;;4.74;100.00;102518.75;5105303;28;20158;-74
2022/12/01 01:17:32;;;;;;;49.13;28.42;;;;;;;4.75;100.00;102515.34;5102315;28;20100;-75
2022/12/01 01:19:58;;;;;;;47.67;27.23;;;;;;;4.75;100.00;102523.19;5104839;28;20031;-73
2022/12/01 01:22:24;;;;;;;49.80;28.50;;;;;;;4.74;100.00;102529.25;5102609;28;20047;-74
2022/12/01 01:24:49;;;;;;;50.42;29.10;;;;;;;4.74;100.00;102521.38;5102150;28;20073;-73
2022/12/01 01:27:14;;;;;;;51.03;28.67;;;;;;;4.74;100.00;102518.75;5104107;28;20098;-73
2022/12/01 01:29:41;;;;;;;48.33;27.55;;;;;;;4.77;100.00;102532.03;5100527;28;20111;-71
2022/12/01 01:32:07;;;;;;;50.65;28.58;;;;;;;4.73;100.00;102530.03;5105175;28;20421;-72
2022/12/01 01:34:32;;;;;;;48.45;27.25;;;;;;;4.78;100.00;102539.06;5101413;28;20479;-71
2022/12/01 01:36:58;;;;;;;48.00;27.15;;;;;;;4.74;100.00;102539.72;5104179;28;20042;-71
2022/12/01 01:39:23;;;;;;;47.25;26.45;;;;;;;4.74;100.00;102544.97;5103123;28;20478;-70
2022/12/01 01:41:48;;;;;;;48.47;27.60;;;;;;;4.75;100.00;102543.22;5102781;28;20032;-70
2022/12/01 01:45:02;;;;;;;46.30;25.45;;;;;;;4.76;100.00;102542.44;5103945;28;20455;-73
2022/12/01 01:47:33;;;;;;;46.08;26.20;;;;;;;4.77;100.00;102542.50;5086731;28;20036;-71
2022/12/01 01:50:05;;;;;;;43.63;25.15;;;;;;;4.73;100.00;102543.16;5101830;28;20035;-72
2022/12/01 01:52:32;;;;;;;45.75;26.25;;;;;;;4.73;100.00;102548.38;5104576;28;20024;-71
2022/12/01 01:54:58;;;;;;;46.30;25.80;;;;;;;4.71;100.00;102544.78;5102153;28;20035;-71
2022/12/01 01:57:33;;;;;;;47.85;25.73;;;;;;;4.71;100.00;102542.19;5103167;28;20474;-71
2022/12/01 02:00:08;;;;;;;47.17;26.90;;;;;;;4.69;100.00;102541.19;5100520;28;20039;-73
2022/12/01 02:02:39;;;;;;;46.83;26.63;;;;;;;4.67;100.00;102541.09;5096912;28;20028;-72
2022/12/01 02:05:11;;;;;;;46.42;26.33;;;;;;;4.66;100.00;102541.00;5097620;28;20043;-73
2022/12/01 02:07:40;;;;;;;46.45;25.77;;;;;;;4.70;100.00;102548.22;5097331;28;20052;-71
2022/12/01 02:10:11;;;;;;;47.22;26.80;;;;;;;4.69;100.00;102547.34;5101610;28;20387;-68
2022/12/01 02:13:13;;;;;;;46.85;26.65;;;;;;;4.68;100.00;102539.41;5101755;28;20359;-68
2022/12/01 02:15:41;;;;;;;46.38;27.15;;;;;;;4.67;100.00;102545.44;5101706;28;20024;-68
2022/12/01 02:18:36;;;;;;;44.90;25.80;;;;;;;4.70;100.00;102542.97;5101551;28;20383;-68
2022/12/01 02:21:28;;;;;;;49.30;27.65;;;;;;;4.70;100.00;102540.38;5106918;28;20057;-68
2022/12/01 02:24:12;;;;;;;48.85;28.27;;;;;;;4.68;100.00;102539.41;5105577;28;20489;-68
2022/12/01 02:26:42;;;;;;;49.97;27.65;;;;;;;4.68;100.00;102542.00;5101494;28;20115;-68
2022/12/01 02:29:37;;;;;;;48.90;27.52;;;;;;;4.68;100.00;102545.53;5101260;28;20020;-68
2022/12/01 02:32:46;;;;;;;50.15;28.35;;;;;;;4.69;100.00;102541.19;5107917;28;20024;-68
2022/12/01 02:35:40;;;;;;;49.72;28.48;;;;;;;4.71;100.00;102547.41;5102218;28;20479;-68
2022/12/01 02:38:20;;;;;;;49.83;27.58;;;;;;;4.70;100.00;102546.53;5100797;28;20024;-68
2022/12/01 02:40:54;;;;;;;49.45;28.48;;;;;;;4.70;100.00;102533.44;5103362;28;20169;-69
2022/12/01 02:43:56;;;;;;;50.10;28.08;;;;;;;4.70;100.00;102543.91;5106577;28;20016;-68
2022/12/01 02:46:30;;;;;;;50.17;28.75;;;;;;;4.71;100.00;102544.78;5104805;28;20028;-68
2022/12/01 02:49:00;;;;;;;51.53;29.23;;;;;;;4.69;100.00;102551.69;5105891;28;20023;-68
2022/12/01 02:51:29;;;;;;;51.15;29.33;;;;;;;4.71;100.00;102550.94;5106868;28;20141;-68
2022/12/01 02:53:57;;;;;;;51.88;28.98;;;;;;;4.72;100.00;102541.38;5105985;28;20423;-69
2022/12/01 02:56:23;;;;;;;50.70;29.25;;;;;;;4.70;100.00;102538.66;5106420;28;20020;-69
2022/12/01 02:58:48;;;;;;;48.83;28.58;;;;;;;4.70;100.00;102540.38;5106625;28;20032;-69
2022/12/01 03:01:20;;;;;;;50.45;29.27;;;;;;;4.71;100.00;102544.78;5105067;28;20028;-68
2022/12/01 03:04:23;;;;;;;51.92;29.05;;;;;;;4.73;100.00;102551.00;5107075;28;20020;-70
2022/12/01 03:07:14;;;;;;;50.15;28.80;;;;;;;4.72;100.00;102546.59;5103279;28;20024;-69
2022/12/01 03:09:53;;;;;;;48.65;28.10;;;;;;;4.72;100.00;102550.13;5100859;28;20023;-69
2022/12/01 03:12:33;;;;;;;49.65;29.25;;;;;;;4.69;100.00;102542.09;5106597;28;20110;-68
2022/12/01 03:15:09;;;;;;;48.38;27.95;;;;;;;4.71;100.00;102550.03;5106685;28;20035;-74
2022/12/01 03:17:54;;;;;;;49.90;29.15;;;;;;;4.66;100.00;102546.25;5100043;28;20034;-74
2022/12/01 03:20:33;;;;;;;47.92;27.75;;;;;;;4.64;100.00;102542.66;5102532;28;20532;-74
2022/12/01 03:23:08;;;;;;;48.95;29.30;;;;;;;4.65;100.00;102552.31;5104550;28;20497;-74
2022/12/01 03:25:36;;;;;;;49.35;28.38;;;;;;;4.67;100.00;102548.94;5107444;28;20504;-74
2022/12/01 03:28:04;;;;;;;48.58;28.67;;;;;;;4.63;100.00;102543.47;5104126;27;20020;-74
2022/12/01 03:30:34;;;;;;;48.53;28.17;;;;;;;4.66;100.00;102546.25;5106526;28;20063;-71
2022/12/01 03:33:08;;;;;;;50.65;29.63;;;;;;;4.64;100.00;102547.88;5104731;28;20023;-71
2022/12/01 03:35:58;;;;;;;47.90;28.55;;;;;;;4.70;100.00;102541.28;5107338;28;20098;-73
2022/12/01 03:38:25;;;;;;;49.85;29.38;;;;;;;4.59;100.00;102541.47;5104344;28;20093;-70
2022/12/01 03:40:57;;;;;;;48.35;28.88;;;;;;;4.62;100.00;102546.91;5105797;28;20385;-72
2022/12/01 03:43:30;;;;;;;48.03;28.77;;;;;;;4.62;100.00;102541.69;5105212;28;20028;-73
2022/12/01 03:46:31;;;;;;;48.78;29.52;;;;;;;4.63;100.00;102540.84;5104900;28;20059;-71
2022/12/01 03:48:56;;;;;;;47.65;28.27;;;;;;;4.63;100.00;102540.84;5099430;28;20032;-73
2022/12/01 03:51:51;;;;;;;48.67;29.65;;;;;;;4.62;100.00;102534.72;5104007;28;20439;-72
2022/12/01 03:54:29;;;;;;;49.75;29.55;;;;;;;4.61;100.00;102545.09;5069756;28;20036;-72
2022/12/01 03:57:02;;;;;;;49.13;28.98;;;;;;;4.60;100.00;102541.59;5105078;28;20118;-71
2022/12/01 03:59:29;;;;;;;50.60;29.48;;;;;;;4.62;100.00;102545.19;5105735;28;20086;-69
2022/12/01 04:01:56;;;;;;;49.25;28.60;;;;;;;4.60;100.00;102552.06;5103278;28;20027;-73
2022/12/01 04:04:21;;;;;;;47.35;28.13;;;;;;;4.62;100.00;102544.31;5104999;28;20032;-73
2022/12/01 04:06:52;;;;;;;49.03;28.98;;;;;;;4.63;100.00;102549.63;5104325;28;20030;-73
2022/12/01 04:09:17;;;;;;;46.47;28.58;;;;;;;4.62;100.00;102553.03;5104028;28;20036;-70
2022/12/01 04:14:26;;;;;;;48.25;28.42;;;;;;;4.60;100.00;102548.53;5105773;28;20060;-74
2022/12/01 04:16:52;;;;;;;47.72;28.38;;;;;;;4.61;100.00;102552.97;5104663;28;20459;-73
2022/12/01 04:19:17;;;;;;;46.97;28.65;;;;;;;4.60;100.00;102553.78;5103783;28;20521;-74
2022/12/01 04:21:43;;;;;;;47.72;27.48;;;;;;;4.59;100.00;102547.63;5104525;28;20535;-73
2022/12/01 04:24:08;;;;;;;47.67;28.70;;;;;;;4.58;100.00;102552.78;5102734;28;20032;-72
2022/12/01 04:26:36;;;;;;;46.58;28.30;;;;;;;4.58;100.00;102553.69;5106574;28;20031;-73
2022/12/01 04:29:05;;;;;;;47.42;28.17;;;;;;;4.57;100.00;102551.88;5103265;28;20063;-73
2022/12/01 04:31:30;;;;;;;47.50;28.30;;;;;;;4.58;100.00;102548.44;5105261;28;20031;-70
2022/12/01 04:33:57;;;;;;;47.60;28.92;;;;;;;4.58;100.00;102552.78;5103753;28;20028;-71
2022/12/01 04:36:28;;;;;;;46.22;28.10;;;;;;;4.59;100.00;102554.56;5104445;28;20069;-68
2022/12/01 04:38:53;;;;;;;46.75;28.50;;;;;;;4.57;100.00;102551.88;5104224;27;20037;-68
2022/12/01 04:41:18;;;;;;;48.50;28.85;;;;;;;4.53;100.00;102548.19;5103498;28;20352;-68
2022/12/01 04:43:44;;;;;;;48.97;29.27;;;;;;;4.53;100.00;102550.81;5105757;27;20488;-69
2022/12/01 04:46:09;;;;;;;47.65;28.63;;;;;;;4.53;100.00;102548.19;5102245;28;20512;-68
2022/12/01 04:48:36;;;;;;;46.55;28.02;;;;;;;4.56;100.00;102543.94;5105767;28;20027;-69
2022/12/01 04:51:07;;;;;;;47.95;28.33;;;;;;;4.57;100.00;102545.75;5102921;28;20055;-69
2022/12/01 04:53:33;;;;;;;46.90;28.35;;;;;;;4.59;100.00;102551.94;5105195;28;20031;-68
2022/12/01 04:55:59;;;;;;;48.63;28.58;;;;;;;4.56;100.00;102555.31;5103076;28;20020;-68
2022/12/01 04:58:25;;;;;;;47.05;29.40;;;;;;;4.51;100.00;102544.59;5103982;28;20032;-69
2022/12/01 05:00:50;;;;;;;47.28;28.73;;;;;;;4.52;100.00;102546.38;5104061;28;20088;-68
2022/12/01 05:03:16;;;;;;;47.10;28.25;;;;;;;4.53;100.00;102545.56;5101411;28;20024;-68
2022/12/01 05:05:41;;;;;;;47.08;28.30;;;;;;;4.50;100.00;102548.03;5105439;28;20015;-69
2022/12/01 05:08:07;;;;;;;50.17;29.77;;;;;;;4.50;100.00;102545.41;5101974;28;20107;-69
2022/12/01 05:10:36;;;;;;;47.13;28.38;;;;;;;4.52;100.00;102550.72;5103622;28;20363;-69
2022/12/01 05:13:03;;;;;;;47.65;28.77;;;;;;;4.49;100.00;102548.84;5102523;28;20043;-69
2022/12/01 05:15:28;;;;;;;47.55;28.92;;;;;;;4.49;100.00;102542.69;5104352;28;20360;-68
2022/12/01 05:17:54;;;;;;;48.65;29.38;;;;;;;4.51;100.00;102547.22;5103071;28;20027;-69
2022/12/01 05:23:05;;;;;;;46.83;29.15;;;;;;;4.47;100.00;102545.25;5101772;28;20517;-69
2022/12/01 05:25:31;;;;;;;47.90;29.35;;;;;;;4.47;100.00;102547.84;5104510;28;20031;-68
2022/12/01 05:27:57;;;;;;;47.95;28.70;;;;;;;4.48;100.00;102547.00;5102804;28;20049;-69
2022/12/01 05:30:22;;;;;;;47.67;29.08;;;;;;;4.48;100.00;102556.59;5103290;28;20076;-69
2022/12/01 05:32:48;;;;;;;47.88;28.80;;;;;;;4.47;100.00;102553.09;5104114;28;20028;-69
2022/12/01 05:35:13;;;;;;;47.78;28.38;;;;;;;4.46;100.00;102556.53;5101656;28;20074;-69
2022/12/01 05:37:38;;;;;;;48.88;28.80;;;;;;;4.49;100.00;102563.66;5105120;28;20065;-69
2022/12/01 05:40:04;;;;;;;49.35;29.35;;;;;;;4.48;100.00;102554.88;5101828;28;20089;-69
2022/12/01 05:42:30;;;;;;;48.15;29.92;;;;;;;4.48;100.00;102554.88;5102244;28;20483;-68
2022/12/01 05:44:55;;;;;;;48.35;29.52;;;;;;;4.48;100.00;102556.59;5101736;28;20019;-69
2022/12/01 05:47:21;;;;;;;46.72;28.52;;;;;;;4.49;100.00;102558.41;5101389;28;20030;-68
2022/12/01 05:49:46;;;;;;;47.63;28.33;;;;;;;4.47;100.00;102554.78;5104255;28;20019;-69
2022/12/01 05:52:11;;;;;;;48.08;28.90;;;;;;;4.49;100.00;102558.41;5101228;28;20093;-70
2022/12/01 05:54:37;;;;;;;48.80;28.40;;;;;;;4.47;100.00;102554.78;5104790;28;20028;-69
2022/12/01 05:57:02;;;;;;;47.70;28.45;;;;;;;4.48;100.00;102554.88;5100606;28;20080;-69
2022/12/01 05:59:27;;;;;;;49.72;29.33;;;;;;;4.48;100.00;102560.13;5102108;28;20042;-68
2022/12/01 06:01:53;;;;;;;47.78;28.75;;;;;;;4.48;100.00;102562.72;5101572;28;20032;-71
2022/12/01 06:04:18;;;;;;;48.38;29.27;;;;;;;4.46;100.00;102563.50;5103856;28;20110;-69
2022/12/01 06:06:44;;;;;;;47.72;28.55;;;;;;;4.47;100.00;102560.03;5101417;28;20028;-68
2022/12/01 06:09:09;;;;;;;47.42;28.08;;;;;;;4.46;100.00;102560.88;5104596;28;20024;-69
2022/12/01 06:11:34;;;;;;;49.45;30.10;;;;;;;4.41;100.00;102560.56;5101441;28;20081;-68
2022/12/01 06:14:00;;;;;;;46.63;28.92;;;;;;;4.45;100.00;102565.19;5103560;28;20386;-68
2022/12/01 06:16:25;;;;;;;48.85;29.48;;;;;;;4.44;100.00;102566.03;5102465;28;20023;-68
2022/12/01 06:18:50;;;;;;;51.20;30.38;;;;;;;4.44;100.00;102568.63;5102276;28;20450;-69
2022/12/01 06:21:16;;;;;;;50.00;29.63;;;;;;;4.42;100.00;102565.00;5103823;28;20463;-68
2022/12/01 06:23:41;;;;;;;49.08;30.05;;;;;;;4.44;100.00;102570.34;5100944;28;20067;-68
2022/12/01 06:26:07;;;;;;;49.50;29.88;;;;;;;4.40;100.00;102564.03;5103423;28;20028;-68
2022/12/01 06:28:32;;;;;;;50.35;30.17;;;;;;;4.39;100.00;102563.94;5101732;28;20036;-68
2022/12/01 06:30:58;;;;;;;48.85;29.33;;;;;;;4.39;100.00;102566.56;5103528;28;20028;-69
2022/12/01 06:33:23;;;;;;;48.88;29.25;;;;;;;4.39;100.00;102564.84;5102640;28;20055;-68
2022/12/01 06:35:59;;;;;;;50.35;29.88;;;;;;;4.38;100.00;102570.00;5100660;28;20028;-68
2022/12/01 06:38:24;;;;;;;48.33;29.38;;;;;;;4.38;100.00;102565.66;5101207;28;20035;-68
2022/12/01 06:40:50;;;;;;;50.28;30.02;;;;;;;4.39;100.00;102567.47;5102125;28;20093;-68
2022/12/01 06:43:15;;;;;;;49.50;28.70;;;;;;;4.42;100.00;102565.00;5102626;28;20031;-68
2022/12/01 06:45:40;;;;;;;47.85;27.80;;;;;;;4.42;100.00;102567.63;5101204;28;20078;-69
2022/12/01 06:48:06;;;;;;;51.03;29.02;;;;;;;4.42;100.00;102570.25;5104101;28;20485;-68
2022/12/01 06:50:31;;;;;;;48.40;28.35;;;;;;;4.40;100.00;102564.03;5100170;28;20047;-68
2022/12/01 06:52:56;;;;;;;48.15;28.55;;;;;;;4.40;100.00;102569.28;5103244;28;20036;-69
2022/12/01 06:55:22;;;;;;;49.75;28.73;;;;;;;4.39;100.00;102572.69;5091902;28;20356;-70
2022/12/01 06:57:47;;;;;;;50.13;28.05;;;;;;;4.41;100.00;102581.53;5098224;28;20036;-70
2022/12/01 07:00:13;;;;;;;47.30;27.90;;;;;;;4.40;100.00;102582.38;5104575;28;20105;-72
2022/12/01 07:02:38;;;;;;;49.33;27.73;;;;;;;4.39;100.00;102593.66;5100035;28;20035;-67
2022/12/01 07:05:04;;;;;;;50.22;28.52;;;;;;;4.40;100.00;102587.59;5100317;28;20035;-65
2022/12/01 07:07:30;;;;;;;49.63;28.48;;;;;;;4.42;100.00;102598.16;5099255;28;20043;-68
2022/12/01 07:09:55;;;;;;;49.70;28.10;;;;;;;4.41;100.00;102598.97;5100545;28;20486;-65
2022/12/01 07:12:20;;;;;;;48.63;27.85;;;;;;;4.40;100.00;102597.16;5098344;28;20386;-66
2022/12/01 07:14:46;;;;;;;48.15;27.27;;;;;;;4.40;100.00;102595.47;5099767;28;20028;-66
2022/12/01 07:17:11;;;;;;;48.53;28.25;;;;;;;4.42;100.00;102600.78;5102274;28;20118;-68
2022/12/01 07:19:36;;;;;;;49.05;28.42;;;;;;;4.43;100.00;102600.88;5103171;28;20031;-68
2022/12/01 07:22:02;;;;;;;50.15;28.45;;;;;;;4.42;100.00;102604.28;5101960;28;20486;-68
2022/12/01 07:24:28;;;;;;;47.42;27.27;;;;;;;4.43;100.00;102602.59;5101731;28;20036;-66
2022/12/01 07:26:54;;;;;;;49.70;28.77;;;;;;;4.43;100.00;102610.47;5095532;28;20020;-69
2022/12/01 07:29:19;;;;;;;50.05;29.15;;;;;;;4.46;100.00;102614.13;5101025;28;20034;-66
2022/12/01 07:31:44;;;;;;;47.70;28.13;;;;;;;4.44;100.00;102612.25;5098266;28;20032;-67
2022/12/01 07:34:14;;;;;;;47.90;27.02;;;;;;;4.43;100.00;102611.34;5099326;28;20023;-66
2022/12/01 07:36:40;;;;;;;46.00;27.67;;;;;;;4.43;100.00;102608.72;5100852;28;20059;-66
2022/12/01 07:39:07;;;;;;;48.80;28.60;;;;;;;4.48;100.00;102614.22;5100878;28;20055;-64
2022/12/01 07:41:33;;;;;;;48.47;28.27;;;;;;;4.49;100.00;102616.03;5102220;28;20099;-72
2022/12/01 07:43:59;;;;;;;49.25;28.73;;;;;;;4.48;100.00;102614.22;5099710;28;20032;-73
2022/12/01 07:46:26;;;;;;;47.55;28.13;;;;;;;4.47;100.00;102609.78;5101359;28;20032;-76
2022/12/01 07:48:53;;;;;;;46.90;26.92;;;;;;;4.49;100.00;102622.16;5101966;28;20367;-73
2022/12/01 07:51:20;;;;;;;49.08;28.73;;;;;;;4.50;100.00;102621.38;5100802;28;20024;-73
2022/12/01 07:53:48;;;;;;;45.47;27.58;;;;;;;4.50;100.00;102629.22;5096541;28;20036;-74
2022/12/01 07:56:14;;;;;;;46.90;27.48;;;;;;;4.51;100.00;102623.19;5099225;28;20032;-73
2022/12/01 07:58:40;;;;;;;44.78;27.13;;;;;;;4.54;100.00;102630.28;5097417;28;20036;-74
2022/12/01 08:01:08;;;;;;;45.78;27.60;;;;;;;4.57;100.00;102625.22;5095895;28;20112;-75
2022/12/01 08:03:34;;;;;;;45.83;27.73;;;;;;;4.59;100.00;102618.38;5101432;28;20027;-68
2022/12/01 08:06:00;;;;;;;46.53;28.10;;;;;;;4.61;100.00;102621.97;5097532;28;20024;-67
2022/12/01 08:08:26;;;;;;;47.05;28.13;;;;;;;4.67;100.00;102637.13;5102487;28;20031;-66
2022/12/01 08:10:52;;;;;;;47.53;28.45;;;;;;;4.68;100.00;102644.19;5098658;28;20090;-67
2022/12/01 08:13:19;;;;;;;48.30;28.30;;;;;;;4.68;100.00;102633.72;5097662;28;20433;-75
2022/12/01 08:15:44;;;;;;;47.33;27.38;;;;;;;4.70;100.00;102635.59;5094957;28;20024;-73
2022/12/01 08:18:09;;;;;;;46.60;28.65;;;;;;;4.74;100.00;102644.53;5099151;28;20089;-73
2022/12/01 08:20:35;;;;;;;45.38;27.30;;;;;;;4.76;100.00;102634.13;5100034;28;20024;-76
2022/12/01 08:23:00;;;;;;;47.67;28.25;;;;;;;4.79;100.00;102639.53;5104571;28;20051;-75
2022/12/01 08:25:27;;;;;;;46.65;28.67;;;;;;;4.82;100.00;102638.03;5099669;28;20028;-78
2022/12/01 08:27:52;;;;;;;48.10;28.40;;;;;;;4.87;100.00;102647.03;5099602;28;20035;-78
2022/12/01 08:30:18;;;;;;;47.50;27.45;;;;;;;4.89;100.00;102644.47;5098537;28;20043;-78
2022/12/01 08:32:43;;;;;;;44.65;27.70;;;;;;;4.93;100.00;102643.84;5102344;28;20039;-74
2022/12/01 08:35:09;;;;;;;45.15;28.40;;;;;;;4.98;100.00;102644.09;5101399;28;20031;-72
2022/12/01 08:37:34;;;;;;;44.15;27.52;;;;;;;5.01;100.00;102649.50;5096034;28;20031;-77
2022/12/01 08:39:59;;;;;;;46.15;28.88;;;;;;;5.02;100.00;102648.69;5102862;28;20026;-79
2022/12/01 08:42:25;;;;;;;47.28;28.75;;;;;;;5.01;100.00;102647.81;5095726;28;20038;-78
2022/12/01 08:44:50;;;;;;;44.75;27.13;;;;;;;5.01;100.00;102653.06;5101023;28;20038;-78
2022/12/01 08:47:15;;;;;;;44.65;27.58;;;;;;;5.05;100.00;102651.50;5098146;28;20024;-79
2022/12/01 08:49:41;;;;;;;47.10;28.48;;;;;;;5.08;100.00;102651.66;5098332;28;20140;-79
2022/12/01 08:52:06;;;;;;;46.78;28.77;;;;;;;5.11;100.00;102644.00;5105645;28;20034;-78
2022/12/01 08:54:32;;;;;;;45.95;27.52;;;;;;;5.11;100.00;102646.63;5102098;28;20093;-75
2022/12/01 08:56:57;;;;;;;46.55;28.65;;;;;;;5.10;100.00;102656.97;5105376;28;20039;-78
2022/12/01 08:59:22;;;;;;;45.63;28.38;;;;;;;5.11;100.00;102650.94;5103004;28;20034;-77
2022/12/01 09:01:54;;;;;;;46.00;29.15;;;;;;;5.11;100.00;102656.19;5103995;28;20035;-78
2022/12/01 09:04:21;;;;;;;45.47;27.90;;;;;;;5.08;100.00;102646.41;5103689;28;20435;-77
2022/12/01 09:06:48;;;;;;;43.97;26.83;;;;;;;5.09;100.00;102650.84;5103829;28;20071;-76
2022/12/01 09:09:17;;;;;;;44.28;28.60;;;;;;;5.11;100.00;102649.25;5104038;28;20059;-77
2022/12/01 09:11:43;;;;;;;45.17;28.23;;;;;;;5.18;100.00;102656.59;5102942;28;20023;-77
2022/12/01 09:14:10;;;;;;;44.13;28.25;;;;;;;5.23;100.00;102660.38;5104825;28;20027;-77
2022/12/01 09:16:36;;;;;;;42.83;27.27;;;;;;;5.27;100.00;102655.31;5101970;28;20082;-77
2022/12/01 09:19:02;;;;;;;44.83;28.15;;;;;;;5.31;100.00;102654.66;5104345;28;20036;-78
2022/12/01 09:21:30;;;;;;;42.80;26.88;;;;;;;5.37;100.00;102657.63;5102212;28;20029;-77
2022/12/01 09:23:55;;;;;;;44.53;27.52;;;;;;;5.39;100.00;102658.63;5104386;28;20474;-77
2022/12/01 09:26:21;;;;;;;45.58;28.58;;;;;;;5.44;100.00;102659.75;5102836;28;20080;-78
2022/12/01 09:28:51;;;;;;;43.95;28.02;;;;;;;5.49;100.00;102655.66;5103723;28;20028;-77
2022/12/01 09:31:22;;;;;;;44.58;27.48;;;;;;;5.54;100.00;102654.19;5102023;28;20027;-77
2022/12/01 09:33:52;;;;;;;43.35;27.73;;;;;;;5.58;100.00;102665.75;5103331;28;20032;-77
2022/12/01 09:36:17;;;;;;;43.53;27.10;;;;;;;5.62;100.00;102666.81;5103451;28;20019;-77
2022/12/01 09:38:43;;;;;;;45.15;28.20;;;;;;;5.69;100.00;102666.31;5101592;28;20565;-77
2022/12/01 09:41:13;;;;;;;43.65;27.85;;;;;;;5.76;100.00;102666.72;5104340;28;20382;-74
2022/12/01 09:43:47;;;;;;;45.92;28.63;;;;;;;5.80;100.00;102670.41;5101966;28;20073;-71
2022/12/01 09:46:19;;;;;;;45.55;28.30;;;;;;;5.82;100.00;102676.66;5103616;28;20062;-69
2022/12/01 09:48:46;;;;;;;44.13;27.73;;;;;;;5.86;100.00;102668.13;5102916;28;20455;-70
2022/12/01 09:51:13;;;;;;;44.47;27.90;;;;;;;5.84;100.00;102667.16;5103831;28;20043;-70
2022/12/01 09:53:40;;;;;;;44.60;28.30;;;;;;;5.88;100.00;102666.50;5100527;28;20033;-69
2022/12/01 09:56:15;;;;;;;43.15;27.73;;;;;;;5.93;100.00;102665.00;5096702;28;20043;-66
2022/12/01 09:58:41;;;;;;;45.97;28.83;;;;;;;5.96;100.00;102658.13;5092252;28;20024;-65
2022/12/01 10:01:15;;;;;;;45.97;27.83;;;;;;;6.05;100.00;102666.50;5099563;28;20055;-66
2022/12/01 10:03:48;;;;;;;43.50;28.35;;;;;;;6.06;100.00;102663.06;5096347;28;20048;-66
2022/12/01 10:06:28;;;;;;;44.90;28.67;;;;;;;6.23;100.00;102666.53;5096099;28;20029;-65
2022/12/01 10:09:13;;;;;;;45.10;28.42;;;;;;;6.27;100.00;102656.25;5093739;28;20078;-64
2022/12/01 10:11:41;;;;;;;43.55;27.63;;;;;;;6.31;100.00;102652.06;5096148;28;20036;-67
2022/12/01 10:14:13;;;;;;;43.92;28.13;;;;;;;6.34;100.00;102656.59;5096479;28;20099;-69
2022/12/01 10:16:49;;;;;;;44.15;27.77;;;;;;;6.30;100.00;102654.63;5095924;28;20028;-69
2022/12/01 10:19:21;;;;;;;42.88;26.73;;;;;;;6.29;100.00;102653.69;5096926;28;20027;-68
2022/12/01 10:22:16;;;;;;;44.28;27.00;;;;;;;6.39;100.00;102649.81;5098372;28;20058;-68
2022/12/01 10:24:58;;;;;;;45.95;29.00;;;;;;;6.38;100.00;102650.66;5095258;28;20107;-66
2022/12/01 10:27:50;;;;;;;45.40;28.02;;;;;;;6.58;100.00;102651.63;5099410;28;20054;-65
2022/12/01 10:30:19;;;;;;;43.53;27.57;;;;;;;6.54;100.00;102645.34;5101472;28;20031;-66
2022/12/01 10:32:44;;;;;;;43.95;27.55;;;;;;;6.67;100.00;102640.69;5096787;28;20028;-66
2022/12/01 10:35:19;;;;;;;44.42;27.75;;;;;;;6.83;100.00;102637.06;5098348;28;20432;-66
2022/12/01 10:37:46;;;;;;;42.90;26.60;;;;;;;6.95;100.00;102635.03;5096607;28;20032;-65
2022/12/01 10:40:14;;;;;;;42.28;26.88;;;;;;;7.07;100.00;102638.25;5100228;28;20027;-66
2022/12/01 10:42:48;;;;;;;43.97;27.15;;;;;;;7.12;100.00;102631.47;5099753;28;20032;-65
2022/12/01 10:45:22;;;;;;;43.58;27.83;;;;;;;7.11;100.00;102627.03;5099020;28;20016;-68
2022/12/01 10:48:08;;;;;;;42.70;27.48;;;;;;;7.25;100.00;102632.03;5099578;28;20032;-68
2022/12/01 10:50:34;;;;;;;42.40;27.08;;;;;;;7.30;100.00;102627.91;5094893;28;20062;-69
2022/12/01 10:53:01;;;;;;;42.33;27.13;;;;;;;7.40;100.00;102629.25;5100561;28;20081;-68
2022/12/01 10:55:31;;;;;;;42.58;27.60;;;;;;;7.48;100.00;102626.13;5104280;28;20038;-68
2022/12/01 10:58:01;;;;;;;41.15;26.52;;;;;;;7.57;100.00;102628.28;5101459;28;20031;-70
2022/12/01 11:00:38;;;;;;;42.30;27.05;;;;;;;7.75;100.00;102627.31;5099706;28;20020;-68
2022/12/01 11:03:04;;;;;;;41.33;26.85;;;;;;;7.85;100.00;102617.22;5100281;28;20054;-68
2022/12/01 11:05:37;;;;;;;40.17;25.88;;;;;;;7.79;100.00;102621.31;5099898;28;20055;-70
2022/12/01 11:08:02;;;;;;;39.75;25.20;;;;;;;7.84;100.00;102620.69;5102029;28;20081;-68
2022/12/01 11:10:29;;;;;;;41.00;25.83;;;;;;;8.14;100.00;102616.66;5103371;28;20035;-68
2022/12/01 11:13:01;;;;;;;40.05;26.13;;;;;;;8.37;100.00;102617.63;5104620;28;20030;-68
2022/12/01 11:15:31;;;;;;;40.97;26.30;;;;;;;8.34;100.00;102622.78;5105624;28;20051;-68
2022/12/01 11:18:02;;;;;;;41.45;25.65;;;;;;;8.25;100.00;102618.03;5106084;28;20459;-68
2022/12/01 11:20:32;;;;;;;39.97;26.45;;;;;;;8.18;100.00;102610.69;5105647;28;20480;-68
2022/12/01 11:23:14;;;;;;;41.35;26.20;;;;;;;8.16;100.00;102612.38;5105780;28;20558;-68
2022/12/01 11:25:39;;;;;;;39.58;25.13;;;;;;;8.00;100.00;102611.72;5100291;28;20070;-68
2022/12/01 11:28:05;;;;;;;40.38;25.70;;;;;;;7.97;100.00;102606.31;5107002;28;20468;-68